sensor_id;sensor_type;location;lat;lon;timestamp;P1;durP1;ratioP1;P2;durP2;ratioP2
17528;SDS011;8882;53.192;8.184;2023-06-22T04:30:57;24.67;;;15.67;;
17528;SDS011;8882;53.192;8.184;2023-06-22T04:33:27;29.00;;;15.33;;
17528;SDS011;8882;53.192;8.184;2023-06-22T04:35:57;23.73;;;15.30;;
17528;SDS011;8882;53.192;8.184;2023-06-22T04:38:25;27.53;;;15.30;;
17528;SDS011;8882;53.192;8.184;2023-06-22T04:40:51;25.90;;;15.23;;
17528;SDS011;8882;53.192;8.184;2023-06-22T04:43:18;25.03;;;15.67;;
17528;SDS011;8882;53.192;8.184;2023-06-22T04:45:44;27.63;;;15.60;;
17528;SDS011;8882;53.192;8.184;2023-06-22T04:48:09;26.60;;;16.13;;
17528;SDS011;8882;53.192;8.184;2023-06-22T04:50:40;25.60;;;16.27;;
17528;SDS011;8882;53.192;8.184;2023-06-22T04:53:06;30.70;;;16.33;;
17528;SDS011;8882;53.192;8.184;2023-06-22T04:55:32;26.50;;;16.33;;
17528;SDS011;8882;53.192;8.184;2023-06-22T04:57:58;23.70;;;15.90;;
17528;SDS011;8882;53.192;8.184;2023-06-22T05:00:29;26.77;;;17.20;;
17528;SDS011;8882;53.192;8.184;2023-06-22T05:02:55;28.40;;;17.23;;
17528;SDS011;8882;53.192;8.184;2023-06-22T05:05:22;25.67;;;16.17;;
17528;SDS011;8882;53.192;8.184;2023-06-22T05:07:49;28.50;;;16.63;;
17528;SDS011;8882;53.192;8.184;2023-06-22T05:10:18;24.40;;;16.60;;
17528;SDS011;8882;53.192;8.184;2023-06-22T05:12:44;23.80;;;16.17;;
17528;SDS011;8882;53.192;8.184;2023-06-22T05:15:11;25.23;;;16.07;;
17528;SDS011;8882;53.192;8.184;2023-06-22T05:17:36;26.87;;;16.17;;
17528;SDS011;8882;53.192;8.184;2023-06-22T05:20:07;23.07;;;15.93;;
17528;SDS011;8882;53.192;8.184;2023-06-22T05:22:34;24.83;;;16.13;;
17528;SDS011;8882;53.192;8.184;2023-06-22T05:25:00;26.63;;;16.90;;
17528;SDS011;8882;53.192;8.184;2023-06-22T05:27:26;26.13;;;15.70;;
17528;SDS011;8882;53.192;8.184;2023-06-22T05:29:51;24.07;;;15.37;;
17528;SDS011;8882;53.192;8.184;2023-06-22T05:32:17;24.67;;;15.43;;
17528;SDS011;8882;53.192;8.184;2023-06-22T05:34:43;27.57;;;16.00;;
17528;SDS011;8882;53.192;8.184;2023-06-22T05:37:09;24.70;;;14.50;;
17528;SDS011;8882;53.192;8.184;2023-06-22T05:39:34;21.37;;;13.87;;
17528;SDS011;8882;53.192;8.184;2023-06-22T05:42:03;20.63;;;12.77;;
17528;SDS011;8882;53.192;8.184;2023-06-22T05:44:30;18.57;;;12.27;;
17528;SDS011;8882;53.192;8.184;2023-06-22T05:46:55;19.80;;;11.87;;
17528;SDS011;8882;53.192;8.184;2023-06-22T05:49:20;14.90;;;11.37;;
17528;SDS011;8882;53.192;8.184;2023-06-22T05:51:47;16.73;;;9.50;;
17528;SDS011;8882;53.192;8.184;2023-06-22T05:54:13;16.37;;;10.40;;
17528;SDS011;8882;53.192;8.184;2023-06-22T05:56:40;13.80;;;9.73;;
17528;SDS011;8882;53.192;8.184;2023-06-22T05:59:06;13.47;;;9.10;;
17528;SDS011;8882;53.192;8.184;2023-06-22T06:01:31;14.50;;;10.10;;
17528;SDS011;8882;53.192;8.184;2023-06-22T06:03:59;12.33;;;9.37;;
17528;SDS011;8882;53.192;8.184;2023-06-22T06:06:25;14.87;;;9.00;;
17528;SDS011;8882;53.192;8.184;2023-06-22T06:08:53;13.93;;;9.30;;
17528;SDS011;8882;53.192;8.184;2023-06-22T06:11:19;11.80;;;8.23;;
17528;SDS011;8882;53.192;8.184;2023-06-22T06:13:44;10.27;;;7.40;;
17528;SDS011;8882;53.192;8.184;2023-06-22T06:16:10;15.20;;;8.30;;
17528;SDS011;8882;53.192;8.184;2023-06-22T06:18:35;11.17;;;6.90;;
17528;SDS011;8882;53.192;8.184;2023-06-22T06:21:02;11.63;;;7.20;;
17528;SDS011;8882;53.192;8.184;2023-06-22T06:23:28;12.33;;;7.73;;
17528;SDS011;8882;53.192;8.184;2023-06-22T06:25:53;11.32;;;7.22;;
17528;SDS011;8882;53.192;8.184;2023-06-22T06:28:19;9.27;;;6.10;;
17528;SDS011;8882;53.192;8.184;2023-06-22T06:30:44;10.63;;;6.38;;
17528;SDS011;8882;53.192;8.184;2023-06-22T06:33:12;9.15;;;5.50;;
17528;SDS011;8882;53.192;8.184;2023-06-22T06:35:37;9.65;;;5.10;;
17528;SDS011;8882;53.192;8.184;2023-06-22T06:38:03;8.07;;;5.00;;
17528;SDS011;8882;53.192;8.184;2023-06-22T06:40:29;8.65;;;5.32;;
17528;SDS011;8882;53.192;8.184;2023-06-22T06:42:54;6.53;;;4.20;;
17528;SDS011;8882;53.192;8.184;2023-06-22T06:45:21;8.40;;;4.22;;
17528;SDS011;8882;53.192;8.184;2023-06-22T06:47:47;7.03;;;4.40;;
17528;SDS011;8882;53.192;8.184;2023-06-22T06:50:14;7.35;;;4.82;;
17528;SDS011;8882;53.192;8.184;2023-06-22T06:52:39;7.15;;;4.43;;
17528;SDS011;8882;53.192;8.184;2023-06-22T06:55:05;6.00;;;4.63;;
17528;SDS011;8882;53.192;8.184;2023-06-22T06:57:33;8.90;;;5.00;;
17528;SDS011;8882;53.192;8.184;2023-06-22T06:59:59;8.13;;;5.53;;
17528;SDS011;8882;53.192;8.184;2023-06-22T07:02:25;5.85;;;4.30;;
17528;SDS011;8882;53.192;8.184;2023-06-22T07:04:52;5.88;;;4.85;;
17528;SDS011;8882;53.192;8.184;2023-06-22T07:07:20;6.82;;;4.70;;
17528;SDS011;8882;53.192;8.184;2023-06-22T07:09:46;6.90;;;4.45;;
17528;SDS011;8882;53.192;8.184;2023-06-22T07:12:11;6.88;;;4.53;;
17528;SDS011;8882;53.192;8.184;2023-06-22T07:14:37;5.85;;;4.45;;
17528;SDS011;8882;53.192;8.184;2023-06-22T07:17:02;5.22;;;3.90;;
17528;SDS011;8882;53.192;8.184;2023-06-22T07:19:28;5.32;;;3.63;;
17528;SDS011;8882;53.192;8.184;2023-06-22T07:21:54;4.68;;;3.47;;
17528;SDS011;8882;53.192;8.184;2023-06-22T07:24:20;4.95;;;3.80;;
17528;SDS011;8882;53.192;8.184;2023-06-22T07:26:49;4.85;;;3.30;;
17528;SDS011;8882;53.192;8.184;2023-06-22T07:29:16;5.70;;;3.50;;
17528;SDS011;8882;53.192;8.184;2023-06-22T07:31:42;3.40;;;2.90;;
17528;SDS011;8882;53.192;8.184;2023-06-22T07:34:08;3.55;;;3.08;;
17528;SDS011;8882;53.192;8.184;2023-06-22T07:36:34;4.85;;;3.28;;
17528;SDS011;8882;53.192;8.184;2023-06-22T07:39:00;6.40;;;3.58;;
17528;SDS011;8882;53.192;8.184;2023-06-22T07:41:27;3.80;;;2.65;;
17528;SDS011;8882;53.192;8.184;2023-06-22T07:43:53;4.68;;;2.90;;
17528;SDS011;8882;53.192;8.184;2023-06-22T07:46:18;4.68;;;3.08;;
17528;SDS011;8882;53.192;8.184;2023-06-22T07:48:44;4.35;;;3.00;;
17528;SDS011;8882;53.192;8.184;2023-06-22T07:51:10;6.22;;;2.95;;
17528;SDS011;8882;53.192;8.184;2023-06-22T07:53:39;6.13;;;2.83;;
17528;SDS011;8882;53.192;8.184;2023-06-22T07:56:11;3.40;;;2.40;;
17528;SDS011;8882;53.192;8.184;2023-06-22T07:58:37;3.85;;;2.38;;
17528;SDS011;8882;53.192;8.184;2023-06-22T08:01:03;2.83;;;2.50;;
17528;SDS011;8882;53.192;8.184;2023-06-22T08:03:29;3.00;;;2.63;;
17528;SDS011;8882;53.192;8.184;2023-06-22T08:05:55;4.63;;;2.83;;
17528;SDS011;8882;53.192;8.184;2023-06-22T08:08:20;4.22;;;2.60;;
17528;SDS011;8882;53.192;8.184;2023-06-22T08:10:46;6.70;;;2.67;;
17528;SDS011;8882;53.192;8.184;2023-06-22T08:13:11;4.60;;;2.10;;
17528;SDS011;8882;53.192;8.184;2023-06-22T08:15:37;4.88;;;2.20;;
17528;SDS011;8882;53.192;8.184;2023-06-22T08:18:02;3.55;;;2.50;;
17528;SDS011;8882;53.192;8.184;2023-06-22T08:20:28;2.42;;;1.75;;
17528;SDS011;8882;53.192;8.184;2023-06-22T08:22:54;3.25;;;2.10;;
17528;SDS011;8882;53.192;8.184;2023-06-22T08:25:21;2.05;;;1.85;;
17528;SDS011;8882;53.192;8.184;2023-06-22T08:27:46;2.92;;;1.85;;
17528;SDS011;8882;53.192;8.184;2023-06-22T08:30:13;3.05;;;2.30;;
17528;SDS011;8882;53.192;8.184;2023-06-22T08:32:39;2.55;;;1.92;;
17528;SDS011;8882;53.192;8.184;2023-06-22T08:35:05;2.60;;;1.90;;
17528;SDS011;8882;53.192;8.184;2023-06-22T08:37:34;1.83;;;1.60;;
17528;SDS011;8882;53.192;8.184;2023-06-22T08:40:01;4.25;;;2.15;;
17528;SDS011;8882;53.192;8.184;2023-06-22T08:42:31;3.53;;;1.88;;
17528;SDS011;8882;53.192;8.184;2023-06-22T08:44:56;2.78;;;2.17;;
17528;SDS011;8882;53.192;8.184;2023-06-22T08:47:22;3.08;;;2.10;;
17528;SDS011;8882;53.192;8.184;2023-06-22T08:49:48;3.90;;;2.28;;
17528;SDS011;8882;53.192;8.184;2023-06-22T08:52:13;2.60;;;1.73;;
17528;SDS011;8882;53.192;8.184;2023-06-22T08:54:39;3.33;;;2.15;;
17528;SDS011;8882;53.192;8.184;2023-06-22T08:57:05;3.88;;;2.50;;
17528;SDS011;8882;53.192;8.184;2023-06-22T08:59:31;4.30;;;2.78;;
17528;SDS011;8882;53.192;8.184;2023-06-22T09:01:56;3.45;;;2.67;;
17528;SDS011;8882;53.192;8.184;2023-06-22T09:04:22;4.53;;;2.42;;
17528;SDS011;8882;53.192;8.184;2023-06-22T09:06:48;5.03;;;3.03;;
17528;SDS011;8882;53.192;8.184;2023-06-22T09:09:15;4.63;;;3.03;;
17528;SDS011;8882;53.192;8.184;2023-06-22T09:11:41;2.65;;;2.20;;
17528;SDS011;8882;53.192;8.184;2023-06-22T09:14:06;2.80;;;2.53;;
17528;SDS011;8882;53.192;8.184;2023-06-22T09:16:33;4.63;;;3.05;;
17528;SDS011;8882;53.192;8.184;2023-06-22T09:18:59;4.93;;;3.05;;
17528;SDS011;8882;53.192;8.184;2023-06-22T09:21:24;3.75;;;2.85;;
17528;SDS011;8882;53.192;8.184;2023-06-22T09:23:50;5.30;;;2.47;;
17528;SDS011;8882;53.192;8.184;2023-06-22T09:26:16;6.60;;;3.40;;
17528;SDS011;8882;53.192;8.184;2023-06-22T09:28:43;4.07;;;2.88;;
17528;SDS011;8882;53.192;8.184;2023-06-22T09:31:08;3.95;;;2.88;;
17528;SDS011;8882;53.192;8.184;2023-06-22T09:33:34;2.83;;;2.60;;
17528;SDS011;8882;53.192;8.184;2023-06-22T09:36:00;4.57;;;3.20;;
17528;SDS011;8882;53.192;8.184;2023-06-22T09:38:25;3.70;;;3.20;;
17528;SDS011;8882;53.192;8.184;2023-06-22T09:40:51;4.05;;;2.55;;
17528;SDS011;8882;53.192;8.184;2023-06-22T09:43:16;4.28;;;3.13;;
17528;SDS011;8882;53.192;8.184;2023-06-22T09:45:42;5.75;;;2.90;;
17528;SDS011;8882;53.192;8.184;2023-06-22T09:48:08;4.07;;;2.92;;
17528;SDS011;8882;53.192;8.184;2023-06-22T09:50:34;3.15;;;2.58;;
17528;SDS011;8882;53.192;8.184;2023-06-22T09:53:01;6.03;;;2.97;;
17528;SDS011;8882;53.192;8.184;2023-06-22T09:55:26;2.58;;;2.33;;
17528;SDS011;8882;53.192;8.184;2023-06-22T09:57:52;2.88;;;2.42;;
17528;SDS011;8882;53.192;8.184;2023-06-22T10:00:17;4.57;;;2.70;;
17528;SDS011;8882;53.192;8.184;2023-06-22T10:02:44;4.45;;;2.72;;
17528;SDS011;8882;53.192;8.184;2023-06-22T10:05:09;3.88;;;2.88;;
17528;SDS011;8882;53.192;8.184;2023-06-22T10:07:35;4.60;;;3.08;;
17528;SDS011;8882;53.192;8.184;2023-06-22T10:10:05;4.68;;;2.83;;
17528;SDS011;8882;53.192;8.184;2023-06-22T10:12:31;3.83;;;2.28;;
17528;SDS011;8882;53.192;8.184;2023-06-22T10:14:57;3.63;;;2.28;;
17528;SDS011;8882;53.192;8.184;2023-06-22T10:17:22;3.10;;;2.63;;
17528;SDS011;8882;53.192;8.184;2023-06-22T10:19:48;3.45;;;2.70;;
17528;SDS011;8882;53.192;8.184;2023-06-22T10:22:13;4.25;;;2.97;;
17528;SDS011;8882;53.192;8.184;2023-06-22T10:24:39;4.13;;;3.22;;
17528;SDS011;8882;53.192;8.184;2023-06-22T10:27:09;4.50;;;2.42;;
17528;SDS011;8882;53.192;8.184;2023-06-22T10:29:35;6.07;;;3.67;;
17528;SDS011;8882;53.192;8.184;2023-06-22T10:32:01;3.63;;;3.13;;
17528;SDS011;8882;53.192;8.184;2023-06-22T10:34:27;3.92;;;2.95;;
17528;SDS011;8882;53.192;8.184;2023-06-22T10:36:52;4.38;;;3.40;;
17528;SDS011;8882;53.192;8.184;2023-06-22T10:39:18;2.78;;;2.50;;
17528;SDS011;8882;53.192;8.184;2023-06-22T10:41:43;4.90;;;3.03;;
17528;SDS011;8882;53.192;8.184;2023-06-22T10:44:09;5.95;;;3.78;;
17528;SDS011;8882;53.192;8.184;2023-06-22T10:46:35;5.50;;;3.28;;
17528;SDS011;8882;53.192;8.184;2023-06-22T10:49:01;5.85;;;4.15;;
17528;SDS011;8882;53.192;8.184;2023-06-22T10:51:26;5.80;;;4.10;;
17528;SDS011;8882;53.192;8.184;2023-06-22T10:53:53;6.35;;;4.47;;
17528;SDS011;8882;53.192;8.184;2023-06-22T10:56:18;6.80;;;3.58;;
17528;SDS011;8882;53.192;8.184;2023-06-22T10:58:44;4.13;;;3.20;;
17528;SDS011;8882;53.192;8.184;2023-06-22T11:01:11;7.53;;;4.28;;
17528;SDS011;8882;53.192;8.184;2023-06-22T11:03:36;8.68;;;4.53;;
17528;SDS011;8882;53.192;8.184;2023-06-22T11:06:02;5.43;;;3.60;;
17528;SDS011;8882;53.192;8.184;2023-06-22T11:08:27;7.00;;;4.40;;
17528;SDS011;8882;53.192;8.184;2023-06-22T11:10:53;4.75;;;3.40;;
17528;SDS011;8882;53.192;8.184;2023-06-22T11:13:18;5.72;;;4.20;;
17528;SDS011;8882;53.192;8.184;2023-06-22T11:15:44;6.55;;;4.88;;
17528;SDS011;8882;53.192;8.184;2023-06-22T11:18:09;5.65;;;3.95;;
17528;SDS011;8882;53.192;8.184;2023-06-22T11:20:35;5.65;;;4.45;;
17528;SDS011;8882;53.192;8.184;2023-06-22T11:23:04;4.00;;;3.55;;
17528;SDS011;8882;53.192;8.184;2023-06-22T11:25:31;4.65;;;3.13;;
17528;SDS011;8882;53.192;8.184;2023-06-22T11:27:57;5.57;;;3.75;;
17528;SDS011;8882;53.192;8.184;2023-06-22T11:30:22;5.15;;;4.00;;
17528;SDS011;8882;53.192;8.184;2023-06-22T11:32:48;6.35;;;4.00;;
17528;SDS011;8882;53.192;8.184;2023-06-22T11:35:14;4.28;;;3.42;;
17528;SDS011;8882;53.192;8.184;2023-06-22T11:37:39;3.00;;;2.70;;
17528;SDS011;8882;53.192;8.184;2023-06-22T11:40:05;5.35;;;3.53;;
17528;SDS011;8882;53.192;8.184;2023-06-22T11:42:34;4.03;;;2.88;;
17528;SDS011;8882;53.192;8.184;2023-06-22T11:44:59;3.85;;;3.30;;
17528;SDS011;8882;53.192;8.184;2023-06-22T11:47:25;9.75;;;2.92;;
17528;SDS011;8882;53.192;8.184;2023-06-22T11:49:50;3.33;;;3.00;;
17528;SDS011;8882;53.192;8.184;2023-06-22T11:52:16;3.72;;;2.95;;
17528;SDS011;8882;53.192;8.184;2023-06-22T11:54:42;4.03;;;3.13;;
17528;SDS011;8882;53.192;8.184;2023-06-22T11:57:08;3.72;;;2.70;;
17528;SDS011;8882;53.192;8.184;2023-06-22T11:59:34;3.47;;;2.45;;
17528;SDS011;8882;53.192;8.184;2023-06-22T12:01:59;4.15;;;3.00;;
17528;SDS011;8882;53.192;8.184;2023-06-22T12:04:25;3.92;;;3.13;;
17528;SDS011;8882;53.192;8.184;2023-06-22T12:06:50;3.20;;;2.88;;
17528;SDS011;8882;53.192;8.184;2023-06-22T12:09:16;3.15;;;2.90;;
17528;SDS011;8882;53.192;8.184;2023-06-22T12:11:41;3.80;;;2.50;;
17528;SDS011;8882;53.192;8.184;2023-06-22T12:14:07;4.63;;;3.65;;
17528;SDS011;8882;53.192;8.184;2023-06-22T12:16:32;4.50;;;2.90;;
17528;SDS011;8882;53.192;8.184;2023-06-22T12:18:58;5.68;;;3.13;;
17528;SDS011;8882;53.192;8.184;2023-06-22T12:21:23;3.13;;;2.63;;
17528;SDS011;8882;53.192;8.184;2023-06-22T12:23:49;3.17;;;2.88;;
17528;SDS011;8882;53.192;8.184;2023-06-22T12:26:14;3.15;;;2.85;;
17528;SDS011;8882;53.192;8.184;2023-06-22T12:28:40;3.60;;;3.00;;
17528;SDS011;8882;53.192;8.184;2023-06-22T12:31:06;3.13;;;2.78;;
17528;SDS011;8882;53.192;8.184;2023-06-22T12:33:31;6.53;;;2.90;;
17528;SDS011;8882;53.192;8.184;2023-06-22T12:35:57;2.78;;;2.42;;
17528;SDS011;8882;53.192;8.184;2023-06-22T12:38:22;4.32;;;2.65;;
17528;SDS011;8882;53.192;8.184;2023-06-22T12:40:50;3.63;;;2.80;;
17528;SDS011;8882;53.192;8.184;2023-06-22T12:43:16;3.28;;;2.80;;
17528;SDS011;8882;53.192;8.184;2023-06-22T12:45:41;5.32;;;3.28;;
17528;SDS011;8882;53.192;8.184;2023-06-22T12:48:07;3.95;;;3.05;;
17528;SDS011;8882;53.192;8.184;2023-06-22T12:50:33;2.70;;;2.47;;
17528;SDS011;8882;53.192;8.184;2023-06-22T12:52:59;4.45;;;2.92;;
17528;SDS011;8882;53.192;8.184;2023-06-22T12:55:27;3.17;;;2.80;;
17528;SDS011;8882;53.192;8.184;2023-06-22T12:57:52;3.28;;;2.75;;
17528;SDS011;8882;53.192;8.184;2023-06-22T13:00:18;4.32;;;3.05;;
17528;SDS011;8882;53.192;8.184;2023-06-22T13:02:44;3.13;;;2.83;;
17528;SDS011;8882;53.192;8.184;2023-06-22T13:05:10;4.55;;;3.13;;
17528;SDS011;8882;53.192;8.184;2023-06-22T13:07:35;5.80;;;3.63;;
17528;SDS011;8882;53.192;8.184;2023-06-22T13:10:01;4.57;;;2.67;;
17528;SDS011;8882;53.192;8.184;2023-06-22T13:12:27;4.22;;;3.22;;
17528;SDS011;8882;53.192;8.184;2023-06-22T13:14:52;5.50;;;3.05;;
17528;SDS011;8882;53.192;8.184;2023-06-22T13:17:18;4.50;;;3.08;;
17528;SDS011;8882;53.192;8.184;2023-06-22T13:19:43;4.32;;;3.15;;
17528;SDS011;8882;53.192;8.184;2023-06-22T13:24:57;3.78;;;3.08;;
17528;SDS011;8882;53.192;8.184;2023-06-22T13:27:24;3.38;;;2.88;;
17528;SDS011;8882;53.192;8.184;2023-06-22T13:29:49;5.18;;;3.45;;
17528;SDS011;8882;53.192;8.184;2023-06-22T13:32:15;4.13;;;3.08;;
17528;SDS011;8882;53.192;8.184;2023-06-22T13:34:41;4.68;;;3.58;;
17528;SDS011;8882;53.192;8.184;2023-06-22T13:37:07;6.05;;;3.63;;
17528;SDS011;8882;53.192;8.184;2023-06-22T13:39:32;3.78;;;2.92;;
17528;SDS011;8882;53.192;8.184;2023-06-22T13:41:58;6.65;;;4.13;;
17528;SDS011;8882;53.192;8.184;2023-06-22T13:44:23;4.95;;;3.72;;
17528;SDS011;8882;53.192;8.184;2023-06-22T13:46:53;4.38;;;3.40;;
17528;SDS011;8882;53.192;8.184;2023-06-22T13:49:19;4.70;;;3.33;;
17528;SDS011;8882;53.192;8.184;2023-06-22T13:51:46;5.60;;;3.42;;
17528;SDS011;8882;53.192;8.184;2023-06-22T13:54:13;4.70;;;2.90;;
17528;SDS011;8882;53.192;8.184;2023-06-22T13:56:38;5.78;;;3.47;;
17528;SDS011;8882;53.192;8.184;2023-06-22T13:59:04;4.65;;;3.28;;
17528;SDS011;8882;53.192;8.184;2023-06-22T14:01:29;4.82;;;3.65;;
17528;SDS011;8882;53.192;8.184;2023-06-22T14:03:55;5.13;;;3.30;;
17528;SDS011;8882;53.192;8.184;2023-06-22T14:06:20;5.13;;;3.75;;
17528;SDS011;8882;53.192;8.184;2023-06-22T14:08:46;5.80;;;3.75;;
17528;SDS011;8882;53.192;8.184;2023-06-22T14:11:11;8.80;;;3.92;;
17528;SDS011;8882;53.192;8.184;2023-06-22T14:13:37;8.98;;;4.07;;
17528;SDS011;8882;53.192;8.184;2023-06-22T14:16:02;5.78;;;4.40;;
17528;SDS011;8882;53.192;8.184;2023-06-22T14:18:29;5.43;;;3.75;;
17528;SDS011;8882;53.192;8.184;2023-06-22T14:20:54;6.72;;;3.50;;
17528;SDS011;8882;53.192;8.184;2023-06-22T14:23:20;8.00;;;3.72;;
17528;SDS011;8882;53.192;8.184;2023-06-22T14:25:45;5.03;;;3.40;;
17528;SDS011;8882;53.192;8.184;2023-06-22T14:28:11;5.68;;;4.00;;
17528;SDS011;8882;53.192;8.184;2023-06-22T14:30:37;7.93;;;3.50;;
17528;SDS011;8882;53.192;8.184;2023-06-22T14:33:02;6.65;;;3.58;;
17528;SDS011;8882;53.192;8.184;2023-06-22T14:35:28;4.78;;;3.33;;
17528;SDS011;8882;53.192;8.184;2023-06-22T14:37:54;5.13;;;3.20;;
17528;SDS011;8882;53.192;8.184;2023-06-22T14:40:19;4.38;;;3.17;;
17528;SDS011;8882;53.192;8.184;2023-06-22T14:42:45;5.68;;;3.53;;
17528;SDS011;8882;53.192;8.184;2023-06-22T14:45:12;6.97;;;3.80;;
17528;SDS011;8882;53.192;8.184;2023-06-22T14:47:38;7.05;;;3.80;;
17528;SDS011;8882;53.192;8.184;2023-06-22T14:50:04;6.03;;;3.55;;
17528;SDS011;8882;53.192;8.184;2023-06-22T14:52:30;6.60;;;3.63;;
17528;SDS011;8882;53.192;8.184;2023-06-22T14:54:56;5.38;;;3.65;;
17528;SDS011;8882;53.192;8.184;2023-06-22T14:57:22;4.00;;;3.17;;
17528;SDS011;8882;53.192;8.184;2023-06-22T14:59:48;5.50;;;3.17;;
17528;SDS011;8882;53.192;8.184;2023-06-22T15:02:14;4.13;;;3.10;;
17528;SDS011;8882;53.192;8.184;2023-06-22T15:04:40;3.97;;;2.80;;
17528;SDS011;8882;53.192;8.184;2023-06-22T15:07:06;5.43;;;3.40;;
17528;SDS011;8882;53.192;8.184;2023-06-22T15:09:31;5.07;;;3.45;;
17528;SDS011;8882;53.192;8.184;2023-06-22T15:11:58;5.40;;;3.17;;
17528;SDS011;8882;53.192;8.184;2023-06-22T15:14:26;6.05;;;3.00;;
17528;SDS011;8882;53.192;8.184;2023-06-22T15:16:52;5.10;;;3.55;;
17528;SDS011;8882;53.192;8.184;2023-06-22T15:19:18;5.85;;;2.97;;
17528;SDS011;8882;53.192;8.184;2023-06-22T15:21:44;7.50;;;3.25;;
17528;SDS011;8882;53.192;8.184;2023-06-22T15:24:09;4.60;;;3.35;;
17528;SDS011;8882;53.192;8.184;2023-06-22T15:26:36;4.10;;;3.20;;
17528;SDS011;8882;53.192;8.184;2023-06-22T15:29:01;4.80;;;2.95;;
17528;SDS011;8882;53.192;8.184;2023-06-22T15:31:27;5.47;;;3.05;;
17528;SDS011;8882;53.192;8.184;2023-06-22T15:33:52;4.53;;;3.47;;
17528;SDS011;8882;53.192;8.184;2023-06-22T15:36:18;5.85;;;3.38;;
17528;SDS011;8882;53.192;8.184;2023-06-22T15:38:43;4.32;;;3.13;;
17528;SDS011;8882;53.192;8.184;2023-06-22T15:41:09;4.07;;;2.85;;
17528;SDS011;8882;53.192;8.184;2023-06-22T15:43:34;8.23;;;2.85;;
17528;SDS011;8882;53.192;8.184;2023-06-22T15:46:00;4.63;;;2.90;;
17528;SDS011;8882;53.192;8.184;2023-06-22T15:48:26;6.22;;;2.85;;
17528;SDS011;8882;53.192;8.184;2023-06-22T15:50:51;3.40;;;2.92;;
17528;SDS011;8882;53.192;8.184;2023-06-22T15:53:17;5.95;;;2.72;;
17528;SDS011;8882;53.192;8.184;2023-06-22T15:55:42;3.28;;;2.58;;
17528;SDS011;8882;53.192;8.184;2023-06-22T15:58:08;4.93;;;2.50;;
17528;SDS011;8882;53.192;8.184;2023-06-22T16:00:34;2.60;;;2.33;;
17528;SDS011;8882;53.192;8.184;2023-06-22T16:03:00;2.95;;;2.60;;
17528;SDS011;8882;53.192;8.184;2023-06-22T16:05:25;4.70;;;2.38;;
17528;SDS011;8882;53.192;8.184;2023-06-22T16:07:51;3.72;;;2.63;;
17528;SDS011;8882;53.192;8.184;2023-06-22T16:10:20;4.25;;;2.28;;
17528;SDS011;8882;53.192;8.184;2023-06-22T16:12:45;3.42;;;2.47;;
17528;SDS011;8882;53.192;8.184;2023-06-22T16:15:11;2.30;;;2.08;;
17528;SDS011;8882;53.192;8.184;2023-06-22T16:17:37;4.90;;;2.65;;
17528;SDS011;8882;53.192;8.184;2023-06-22T16:20:06;4.40;;;2.58;;
17528;SDS011;8882;53.192;8.184;2023-06-22T16:22:32;6.45;;;2.50;;
17528;SDS011;8882;53.192;8.184;2023-06-22T16:24:59;3.45;;;2.40;;
17528;SDS011;8882;53.192;8.184;2023-06-22T16:27:24;5.50;;;2.42;;
17528;SDS011;8882;53.192;8.184;2023-06-22T16:29:53;8.75;;;2.40;;
17528;SDS011;8882;53.192;8.184;2023-06-22T16:32:18;3.97;;;2.53;;
17528;SDS011;8882;53.192;8.184;2023-06-22T16:34:44;6.38;;;2.33;;
17528;SDS011;8882;53.192;8.184;2023-06-22T16:37:10;2.88;;;2.30;;
17528;SDS011;8882;53.192;8.184;2023-06-22T16:39:36;2.72;;;2.50;;
17528;SDS011;8882;53.192;8.184;2023-06-22T16:42:02;3.28;;;2.03;;
17528;SDS011;8882;53.192;8.184;2023-06-22T16:44:28;4.53;;;2.25;;
17528;SDS011;8882;53.192;8.184;2023-06-22T16:46:53;3.00;;;2.40;;
17528;SDS011;8882;53.192;8.184;2023-06-22T16:49:19;4.68;;;2.00;;
17528;SDS011;8882;53.192;8.184;2023-06-22T16:51:44;4.93;;;2.40;;
17528;SDS011;8882;53.192;8.184;2023-06-22T16:54:10;3.45;;;2.13;;
17528;SDS011;8882;53.192;8.184;2023-06-22T16:56:37;3.85;;;2.17;;
17528;SDS011;8882;53.192;8.184;2023-06-22T16:59:02;4.32;;;2.30;;
17528;SDS011;8882;53.192;8.184;2023-06-22T17:01:28;3.67;;;1.92;;
17528;SDS011;8882;53.192;8.184;2023-06-22T17:04:02;3.75;;;2.17;;
17528;SDS011;8882;53.192;8.184;2023-06-22T17:06:31;2.88;;;1.98;;
17528;SDS011;8882;53.192;8.184;2023-06-22T17:08:57;6.60;;;2.25;;
17528;SDS011;8882;53.192;8.184;2023-06-22T17:11:25;1.90;;;1.70;;
17528;SDS011;8882;53.192;8.184;2023-06-22T17:13:53;1.95;;;1.70;;
17528;SDS011;8882;53.192;8.184;2023-06-22T17:16:19;3.53;;;1.70;;
17528;SDS011;8882;53.192;8.184;2023-06-22T17:18:45;3.75;;;2.05;;
17528;SDS011;8882;53.192;8.184;2023-06-22T17:21:11;3.10;;;2.17;;
17528;SDS011;8882;53.192;8.184;2023-06-22T17:23:37;5.47;;;1.92;;
17528;SDS011;8882;53.192;8.184;2023-06-22T17:26:03;2.47;;;2.00;;
17528;SDS011;8882;53.192;8.184;2023-06-22T17:28:49;3.50;;;1.90;;
17528;SDS011;8882;53.192;8.184;2023-06-22T17:31:15;3.60;;;2.20;;
17528;SDS011;8882;53.192;8.184;2023-06-22T17:33:43;2.97;;;2.03;;
17528;SDS011;8882;53.192;8.184;2023-06-22T17:36:12;5.35;;;1.92;;
17528;SDS011;8882;53.192;8.184;2023-06-22T17:38:38;2.03;;;1.83;;
17528;SDS011;8882;53.192;8.184;2023-06-22T17:41:04;7.20;;;2.40;;
17528;SDS011;8882;53.192;8.184;2023-06-22T17:43:30;2.72;;;1.98;;
17528;SDS011;8882;53.192;8.184;2023-06-22T17:45:58;2.38;;;1.80;;
17528;SDS011;8882;53.192;8.184;2023-06-22T17:48:24;3.38;;;2.42;;
17528;SDS011;8882;53.192;8.184;2023-06-22T17:50:51;2.75;;;1.92;;
17528;SDS011;8882;53.192;8.184;2023-06-22T17:53:16;3.38;;;1.95;;
17528;SDS011;8882;53.192;8.184;2023-06-22T17:55:42;11.32;;;2.40;;
17528;SDS011;8882;53.192;8.184;2023-06-22T17:58:08;4.07;;;2.60;;
17528;SDS011;8882;53.192;8.184;2023-06-22T18:00:34;6.80;;;2.17;;
17528;SDS011;8882;53.192;8.184;2023-06-22T18:03:01;2.70;;;2.10;;
17528;SDS011;8882;53.192;8.184;2023-06-22T18:05:33;4.15;;;1.75;;
17528;SDS011;8882;53.192;8.184;2023-06-22T18:08:00;2.20;;;2.00;;
17528;SDS011;8882;53.192;8.184;2023-06-22T18:10:28;4.45;;;2.03;;
17528;SDS011;8882;53.192;8.184;2023-06-22T18:12:55;3.60;;;1.98;;
17528;SDS011;8882;53.192;8.184;2023-06-22T18:15:22;4.07;;;2.20;;
17528;SDS011;8882;53.192;8.184;2023-06-22T18:17:49;3.70;;;2.35;;
17528;SDS011;8882;53.192;8.184;2023-06-22T18:20:15;4.50;;;2.40;;
17528;SDS011;8882;53.192;8.184;2023-06-22T18:22:42;2.90;;;2.20;;
17528;SDS011;8882;53.192;8.184;2023-06-22T18:25:08;4.90;;;2.50;;
17528;SDS011;8882;53.192;8.184;2023-06-22T18:27:35;3.40;;;1.92;;
17528;SDS011;8882;53.192;8.184;2023-06-22T18:30:02;3.90;;;2.00;;
17528;SDS011;8882;53.192;8.184;2023-06-22T18:32:28;4.32;;;2.25;;
17528;SDS011;8882;53.192;8.184;2023-06-22T18:34:55;5.65;;;2.35;;
17528;SDS011;8882;53.192;8.184;2023-06-22T18:37:21;3.55;;;1.95;;
17528;SDS011;8882;53.192;8.184;2023-06-22T18:39:49;1.70;;;1.58;;
17528;SDS011;8882;53.192;8.184;2023-06-22T18:42:17;3.53;;;2.03;;
17528;SDS011;8882;53.192;8.184;2023-06-22T18:44:44;2.13;;;1.73;;
17528;SDS011;8882;53.192;8.184;2023-06-22T18:47:19;3.70;;;1.95;;
17528;SDS011;8882;53.192;8.184;2023-06-22T18:50:03;3.70;;;1.90;;
17528;SDS011;8882;53.192;8.184;2023-06-22T18:52:33;4.75;;;2.40;;
17528;SDS011;8882;53.192;8.184;2023-06-22T18:55:03;3.67;;;2.30;;
17528;SDS011;8882;53.192;8.184;2023-06-22T18:57:31;4.78;;;2.58;;
17528;SDS011;8882;53.192;8.184;2023-06-22T18:59:58;4.90;;;2.42;;
17528;SDS011;8882;53.192;8.184;2023-06-22T19:07:56;3.45;;;2.30;;
17528;SDS011;8882;53.192;8.184;2023-06-22T19:10:28;4.88;;;2.30;;
17528;SDS011;8882;53.192;8.184;2023-06-22T19:12:58;5.43;;;2.75;;
17528;SDS011;8882;53.192;8.184;2023-06-22T19:15:46;6.00;;;2.67;;
17528;SDS011;8882;53.192;8.184;2023-06-22T19:23:36;3.15;;;2.50;;
17528;SDS011;8882;53.192;8.184;2023-06-22T19:26:05;5.18;;;2.63;;
17528;SDS011;8882;53.192;8.184;2023-06-22T19:28:43;4.50;;;2.55;;
17528;SDS011;8882;53.192;8.184;2023-06-22T19:31:09;5.22;;;3.08;;
17528;SDS011;8882;53.192;8.184;2023-06-22T19:33:35;6.77;;;2.80;;
17528;SDS011;8882;53.192;8.184;2023-06-22T19:36:02;7.03;;;2.85;;